KASX/ASX METAR and TAF weather

Enter ICAO airport designator
Station Type Date Time Source
KASX METAR 2021/07/24 18:53 UTC NOAA

KASX 241853Z AUTO 28015G22KT 10SM CLR 30/14 A2982 RMK AO2 SLP093 T03000139


Station Type Date Time Source
KASX Decoded METAR 2021/07/24 18:53 UTC NOAA

ASHLAND KENNEDY MEMORIAL, WI, United States (KASX) 46-33N 090-55W 251M
Jul 24, 2021 - 02:53 PM EDT / 2021.07.24 1853 UTC
Wind: from the W (280 degrees) at 17 MPH (15 KT) gusting to 25 MPH (22 KT):0
Visibility: 10 mile(s):0
Sky conditions: clear
Temperature: 86.0 F (30.0 C)
Dew Point: 57.0 F (13.9 C)
Relative Humidity: 37%
Pressure (altimeter): 29.82 in. Hg (1009 hPa)
ob: KASX 241853Z AUTO 28015G22KT 10SM CLR 30/14 A2982 RMK AO2 SLP093 T03000139
cycle: 19

Station Type Date Time Source
KASX TAF UTC NOAA

Error!

Example: see airport list